sensor_id;sensor_type;location;lat;lon;timestamp;P1;durP1;ratioP1;P2;durP2;ratioP2
22191;SDS011;11261;52.456;10.850;2023-07-16T00:00:31;2.33;;;1.90;;
22191;SDS011;11261;52.456;10.850;2023-07-16T00:02:59;4.10;;;2.05;;
22191;SDS011;11261;52.456;10.850;2023-07-16T00:05:29;2.10;;;1.80;;
22191;SDS011;11261;52.456;10.850;2023-07-16T00:07:58;2.72;;;1.98;;
22191;SDS011;11261;52.456;10.850;2023-07-16T00:10:26;2.80;;;2.03;;
22191;SDS011;11261;52.456;10.850;2023-07-16T00:12:54;3.03;;;2.28;;
22191;SDS011;11261;52.456;10.850;2023-07-16T00:15:23;3.35;;;2.10;;
22191;SDS011;11261;52.456;10.850;2023-07-16T00:17:51;6.28;;;2.25;;
22191;SDS011;11261;52.456;10.850;2023-07-16T00:20:21;5.13;;;2.30;;
22191;SDS011;11261;52.456;10.850;2023-07-16T00:22:52;3.95;;;2.35;;
22191;SDS011;11261;52.456;10.850;2023-07-16T00:25:21;5.55;;;2.60;;
22191;SDS011;11261;52.456;10.850;2023-07-16T00:27:49;3.70;;;2.08;;
22191;SDS011;11261;52.456;10.850;2023-07-16T00:30:18;6.25;;;2.40;;
22191;SDS011;11261;52.456;10.850;2023-07-16T00:32:46;3.83;;;2.60;;
22191;SDS011;11261;52.456;10.850;2023-07-16T00:35:15;3.60;;;2.47;;
22191;SDS011;11261;52.456;10.850;2023-07-16T00:37:43;3.67;;;2.20;;
22191;SDS011;11261;52.456;10.850;2023-07-16T00:40:13;4.38;;;2.33;;
22191;SDS011;11261;52.456;10.850;2023-07-16T00:42:42;3.78;;;2.35;;
22191;SDS011;11261;52.456;10.850;2023-07-16T00:45:11;3.80;;;2.70;;
22191;SDS011;11261;52.456;10.850;2023-07-16T00:47:41;5.03;;;2.60;;
22191;SDS011;11261;52.456;10.850;2023-07-16T00:50:11;3.95;;;2.50;;
22191;SDS011;11261;52.456;10.850;2023-07-16T00:52:40;4.22;;;2.47;;
22191;SDS011;11261;52.456;10.850;2023-07-16T00:55:11;4.82;;;2.80;;
22191;SDS011;11261;52.456;10.850;2023-07-16T00:57:42;3.65;;;2.80;;
22191;SDS011;11261;52.456;10.850;2023-07-16T01:00:11;3.15;;;2.70;;
22191;SDS011;11261;52.456;10.850;2023-07-16T01:02:40;5.07;;;2.60;;
22191;SDS011;11261;52.456;10.850;2023-07-16T01:05:08;4.72;;;2.67;;
22191;SDS011;11261;52.456;10.850;2023-07-16T01:07:37;3.10;;;2.67;;
22191;SDS011;11261;52.456;10.850;2023-07-16T01:10:08;4.90;;;2.50;;
22191;SDS011;11261;52.456;10.850;2023-07-16T01:12:37;3.25;;;2.33;;
22191;SDS011;11261;52.456;10.850;2023-07-16T01:15:08;3.08;;;2.30;;
22191;SDS011;11261;52.456;10.850;2023-07-16T01:17:37;2.35;;;2.10;;
22191;SDS011;11261;52.456;10.850;2023-07-16T01:20:06;5.47;;;3.72;;
22191;SDS011;11261;52.456;10.850;2023-07-16T01:22:46;4.43;;;2.75;;
22191;SDS011;11261;52.456;10.850;2023-07-16T01:25:29;5.30;;;2.88;;
22191;SDS011;11261;52.456;10.850;2023-07-16T01:28:24;3.38;;;2.30;;
22191;SDS011;11261;52.456;10.850;2023-07-16T01:31:05;4.00;;;1.98;;
22191;SDS011;11261;52.456;10.850;2023-07-16T01:33:36;3.42;;;2.20;;
22191;SDS011;11261;52.456;10.850;2023-07-16T01:36:07;2.95;;;2.15;;
22191;SDS011;11261;52.456;10.850;2023-07-16T01:38:36;3.58;;;2.25;;
22191;SDS011;11261;52.456;10.850;2023-07-16T01:41:04;4.05;;;2.30;;
22191;SDS011;11261;52.456;10.850;2023-07-16T01:43:33;2.83;;;2.08;;
22191;SDS011;11261;52.456;10.850;2023-07-16T01:46:01;4.43;;;2.15;;
22191;SDS011;11261;52.456;10.850;2023-07-16T01:48:32;2.22;;;1.70;;
22191;SDS011;11261;52.456;10.850;2023-07-16T01:51:03;2.83;;;2.30;;
22191;SDS011;11261;52.456;10.850;2023-07-16T01:53:31;4.80;;;2.38;;
22191;SDS011;11261;52.456;10.850;2023-07-16T01:56:00;1.80;;;1.70;;
22191;SDS011;11261;52.456;10.850;2023-07-16T01:58:29;2.40;;;2.20;;
22191;SDS011;11261;52.456;10.850;2023-07-16T02:00:58;3.58;;;2.13;;
22191;SDS011;11261;52.456;10.850;2023-07-16T02:03:26;2.45;;;1.92;;
22191;SDS011;11261;52.456;10.850;2023-07-16T02:05:56;2.97;;;1.90;;
22191;SDS011;11261;52.456;10.850;2023-07-16T02:08:24;3.72;;;2.00;;
22191;SDS011;11261;52.456;10.850;2023-07-16T02:10:53;2.88;;;2.05;;
22191;SDS011;11261;52.456;10.850;2023-07-16T02:13:21;2.83;;;2.10;;
22191;SDS011;11261;52.456;10.850;2023-07-16T02:15:50;3.13;;;1.90;;
22191;SDS011;11261;52.456;10.850;2023-07-16T02:18:18;2.95;;;2.22;;
22191;SDS011;11261;52.456;10.850;2023-07-16T02:20:47;2.95;;;2.35;;
22191;SDS011;11261;52.456;10.850;2023-07-16T02:23:16;2.92;;;2.13;;
22191;SDS011;11261;52.456;10.850;2023-07-16T02:25:44;2.72;;;2.17;;
22191;SDS011;11261;52.456;10.850;2023-07-16T02:28:13;2.22;;;2.03;;
22191;SDS011;11261;52.456;10.850;2023-07-16T02:30:42;6.03;;;2.33;;
22191;SDS011;11261;52.456;10.850;2023-07-16T02:33:11;3.55;;;2.10;;
22191;SDS011;11261;52.456;10.850;2023-07-16T02:35:39;4.78;;;2.00;;
22191;SDS011;11261;52.456;10.850;2023-07-16T02:38:07;3.17;;;2.10;;
22191;SDS011;11261;52.456;10.850;2023-07-16T02:40:37;3.83;;;2.22;;
22191;SDS011;11261;52.456;10.850;2023-07-16T02:43:10;3.20;;;2.20;;
22191;SDS011;11261;52.456;10.850;2023-07-16T02:45:39;3.67;;;1.92;;
22191;SDS011;11261;52.456;10.850;2023-07-16T02:48:07;2.03;;;1.55;;
22191;SDS011;11261;52.456;10.850;2023-07-16T02:50:36;2.70;;;1.60;;
22191;SDS011;11261;52.456;10.850;2023-07-16T02:53:05;5.00;;;1.52;;
22191;SDS011;11261;52.456;10.850;2023-07-16T02:55:34;2.75;;;1.40;;
22191;SDS011;11261;52.456;10.850;2023-07-16T02:58:04;1.95;;;1.75;;
22191;SDS011;11261;52.456;10.850;2023-07-16T03:00:33;1.50;;;1.30;;
22191;SDS011;11261;52.456;10.850;2023-07-16T03:03:01;3.03;;;1.80;;
22191;SDS011;11261;52.456;10.850;2023-07-16T03:05:30;3.55;;;1.50;;
22191;SDS011;11261;52.456;10.850;2023-07-16T03:07:58;2.55;;;1.30;;
22191;SDS011;11261;52.456;10.850;2023-07-16T03:10:27;1.60;;;1.10;;
22191;SDS011;11261;52.456;10.850;2023-07-16T03:12:55;2.08;;;1.50;;
22191;SDS011;11261;52.456;10.850;2023-07-16T03:15:25;1.45;;;1.35;;
22191;SDS011;11261;52.456;10.850;2023-07-16T03:17:53;2.78;;;1.48;;
22191;SDS011;11261;52.456;10.850;2023-07-16T03:20:22;2.60;;;1.50;;
22191;SDS011;11261;52.456;10.850;2023-07-16T03:22:50;2.70;;;1.20;;
22191;SDS011;11261;52.456;10.850;2023-07-16T03:25:18;2.08;;;1.40;;
22191;SDS011;11261;52.456;10.850;2023-07-16T03:27:46;2.33;;;1.42;;
22191;SDS011;11261;52.456;10.850;2023-07-16T03:30:15;1.30;;;1.20;;
22191;SDS011;11261;52.456;10.850;2023-07-16T03:32:44;1.42;;;1.25;;
22191;SDS011;11261;52.456;10.850;2023-07-16T03:35:19;1.42;;;1.17;;
22191;SDS011;11261;52.456;10.850;2023-07-16T03:37:51;2.30;;;1.50;;
22191;SDS011;11261;52.456;10.850;2023-07-16T03:40:23;3.55;;;1.50;;
22191;SDS011;11261;52.456;10.850;2023-07-16T03:42:53;3.50;;;1.40;;
22191;SDS011;11261;52.456;10.850;2023-07-16T03:45:21;2.15;;;1.40;;
22191;SDS011;11261;52.456;10.850;2023-07-16T03:47:51;1.63;;;1.25;;
22191;SDS011;11261;52.456;10.850;2023-07-16T03:50:19;1.83;;;1.30;;
22191;SDS011;11261;52.456;10.850;2023-07-16T03:52:48;1.80;;;1.27;;
22191;SDS011;11261;52.456;10.850;2023-07-16T03:55:16;3.05;;;1.50;;
22191;SDS011;11261;52.456;10.850;2023-07-16T03:57:45;2.05;;;1.40;;
22191;SDS011;11261;52.456;10.850;2023-07-16T04:00:13;1.40;;;1.10;;
22191;SDS011;11261;52.456;10.850;2023-07-16T04:02:41;3.00;;;1.60;;
22191;SDS011;11261;52.456;10.850;2023-07-16T04:05:11;1.90;;;1.20;;
22191;SDS011;11261;52.456;10.850;2023-07-16T04:07:40;4.22;;;1.20;;
22191;SDS011;11261;52.456;10.850;2023-07-16T04:10:08;2.92;;;1.50;;
22191;SDS011;11261;52.456;10.850;2023-07-16T04:12:37;3.20;;;1.50;;
22191;SDS011;11261;52.456;10.850;2023-07-16T04:15:07;3.03;;;1.73;;
22191;SDS011;11261;52.456;10.850;2023-07-16T04:17:36;3.85;;;1.67;;
22191;SDS011;11261;52.456;10.850;2023-07-16T04:20:05;3.28;;;1.42;;
22191;SDS011;11261;52.456;10.850;2023-07-16T04:22:36;1.67;;;1.20;;
22191;SDS011;11261;52.456;10.850;2023-07-16T04:25:04;3.35;;;1.50;;
22191;SDS011;11261;52.456;10.850;2023-07-16T04:27:33;4.55;;;1.98;;
22191;SDS011;11261;52.456;10.850;2023-07-16T04:30:02;1.73;;;1.45;;
22191;SDS011;11261;52.456;10.850;2023-07-16T04:32:31;2.60;;;1.40;;
22191;SDS011;11261;52.456;10.850;2023-07-16T04:35:00;2.55;;;1.70;;
22191;SDS011;11261;52.456;10.850;2023-07-16T04:37:28;2.83;;;1.85;;
22191;SDS011;11261;52.456;10.850;2023-07-16T04:39:57;2.28;;;1.63;;
22191;SDS011;11261;52.456;10.850;2023-07-16T04:42:26;2.83;;;1.70;;
22191;SDS011;11261;52.456;10.850;2023-07-16T04:44:54;3.58;;;1.70;;
22191;SDS011;11261;52.456;10.850;2023-07-16T04:47:22;2.28;;;1.58;;
22191;SDS011;11261;52.456;10.850;2023-07-16T04:49:51;2.45;;;1.60;;
22191;SDS011;11261;52.456;10.850;2023-07-16T04:52:20;3.00;;;1.65;;
22191;SDS011;11261;52.456;10.850;2023-07-16T04:54:48;5.97;;;1.60;;
22191;SDS011;11261;52.456;10.850;2023-07-16T04:57:18;3.55;;;2.03;;
22191;SDS011;11261;52.456;10.850;2023-07-16T04:59:49;1.50;;;1.30;;
22191;SDS011;11261;52.456;10.850;2023-07-16T05:02:18;3.38;;;1.52;;
22191;SDS011;11261;52.456;10.850;2023-07-16T05:04:46;3.03;;;1.70;;
22191;SDS011;11261;52.456;10.850;2023-07-16T05:07:14;4.18;;;1.50;;
22191;SDS011;11261;52.456;10.850;2023-07-16T05:09:43;2.83;;;1.52;;
22191;SDS011;11261;52.456;10.850;2023-07-16T05:12:12;2.60;;;1.40;;
22191;SDS011;11261;52.456;10.850;2023-07-16T05:14:45;2.45;;;1.20;;
22191;SDS011;11261;52.456;10.850;2023-07-16T05:17:14;4.13;;;1.40;;
22191;SDS011;11261;52.456;10.850;2023-07-16T05:19:43;2.92;;;1.58;;
22191;SDS011;11261;52.456;10.850;2023-07-16T05:22:11;4.30;;;1.52;;
22191;SDS011;11261;52.456;10.850;2023-07-16T05:24:40;3.72;;;1.60;;
22191;SDS011;11261;52.456;10.850;2023-07-16T05:27:08;3.40;;;1.52;;
22191;SDS011;11261;52.456;10.850;2023-07-16T05:29:36;3.15;;;1.55;;
22191;SDS011;11261;52.456;10.850;2023-07-16T05:32:06;2.72;;;1.30;;
22191;SDS011;11261;52.456;10.850;2023-07-16T05:34:35;1.77;;;1.42;;
22191;SDS011;11261;52.456;10.850;2023-07-16T05:37:04;1.95;;;1.30;;
22191;SDS011;11261;52.456;10.850;2023-07-16T05:39:32;3.83;;;2.03;;
22191;SDS011;11261;52.456;10.850;2023-07-16T05:42:01;2.13;;;1.30;;
22191;SDS011;11261;52.456;10.850;2023-07-16T05:44:29;2.47;;;1.10;;
22191;SDS011;11261;52.456;10.850;2023-07-16T05:46:57;2.00;;;1.40;;
22191;SDS011;11261;52.456;10.850;2023-07-16T05:49:27;1.30;;;1.20;;
22191;SDS011;11261;52.456;10.850;2023-07-16T05:51:55;2.92;;;1.38;;
22191;SDS011;11261;52.456;10.850;2023-07-16T05:54:24;1.55;;;1.25;;
22191;SDS011;11261;52.456;10.850;2023-07-16T05:56:52;5.00;;;1.65;;
22191;SDS011;11261;52.456;10.850;2023-07-16T05:59:20;2.78;;;1.35;;
22191;SDS011;11261;52.456;10.850;2023-07-16T06:01:49;4.30;;;1.45;;
22191;SDS011;11261;52.456;10.850;2023-07-16T06:04:17;3.58;;;1.55;;
22191;SDS011;11261;52.456;10.850;2023-07-16T06:06:47;3.97;;;1.40;;
22191;SDS011;11261;52.456;10.850;2023-07-16T06:09:18;4.25;;;1.60;;
22191;SDS011;11261;52.456;10.850;2023-07-16T06:11:46;2.67;;;1.20;;
22191;SDS011;11261;52.456;10.850;2023-07-16T06:14:15;1.85;;;1.25;;
22191;SDS011;11261;52.456;10.850;2023-07-16T06:16:43;1.75;;;1.20;;
22191;SDS011;11261;52.456;10.850;2023-07-16T06:19:12;2.25;;;1.35;;
22191;SDS011;11261;52.456;10.850;2023-07-16T06:21:41;1.42;;;1.00;;
22191;SDS011;11261;52.456;10.850;2023-07-16T06:24:10;3.13;;;1.48;;
22191;SDS011;11261;52.456;10.850;2023-07-16T06:26:42;1.83;;;1.30;;
22191;SDS011;11261;52.456;10.850;2023-07-16T06:29:11;2.72;;;1.40;;
22191;SDS011;11261;52.456;10.850;2023-07-16T06:31:41;1.80;;;1.17;;
22191;SDS011;11261;52.456;10.850;2023-07-16T06:34:10;2.55;;;1.10;;
22191;SDS011;11261;52.456;10.850;2023-07-16T06:36:38;3.10;;;1.35;;
22191;SDS011;11261;52.456;10.850;2023-07-16T06:39:07;3.55;;;1.58;;
22191;SDS011;11261;52.456;10.850;2023-07-16T06:41:38;3.75;;;1.17;;
22191;SDS011;11261;52.456;10.850;2023-07-16T06:44:06;2.08;;;1.23;;
22191;SDS011;11261;52.456;10.850;2023-07-16T06:46:34;3.35;;;1.55;;
22191;SDS011;11261;52.456;10.850;2023-07-16T06:49:04;4.40;;;1.45;;
22191;SDS011;11261;52.456;10.850;2023-07-16T06:51:33;3.70;;;1.27;;
22191;SDS011;11261;52.456;10.850;2023-07-16T06:54:01;3.40;;;1.83;;
22191;SDS011;11261;52.456;10.850;2023-07-16T06:56:30;3.20;;;1.27;;
22191;SDS011;11261;52.456;10.850;2023-07-16T06:59:00;1.50;;;1.10;;
22191;SDS011;11261;52.456;10.850;2023-07-16T07:01:28;6.47;;;1.70;;
22191;SDS011;11261;52.456;10.850;2023-07-16T07:03:57;2.60;;;1.35;;
22191;SDS011;11261;52.456;10.850;2023-07-16T07:06:25;3.45;;;2.08;;
22191;SDS011;11261;52.456;10.850;2023-07-16T07:08:53;3.25;;;1.58;;
22191;SDS011;11261;52.456;10.850;2023-07-16T07:11:22;3.83;;;1.50;;
22191;SDS011;11261;52.456;10.850;2023-07-16T07:13:51;5.28;;;1.70;;
22191;SDS011;11261;52.456;10.850;2023-07-16T07:16:21;2.13;;;1.20;;
22191;SDS011;11261;52.456;10.850;2023-07-16T07:18:49;2.78;;;1.55;;
22191;SDS011;11261;52.456;10.850;2023-07-16T07:21:18;2.17;;;1.35;;
22191;SDS011;11261;52.456;10.850;2023-07-16T07:23:46;4.00;;;1.58;;
22191;SDS011;11261;52.456;10.850;2023-07-16T07:26:14;2.58;;;1.30;;
22191;SDS011;11261;52.456;10.850;2023-07-16T07:28:43;3.78;;;1.67;;
22191;SDS011;11261;52.456;10.850;2023-07-16T07:31:11;4.57;;;1.20;;
22191;SDS011;11261;52.456;10.850;2023-07-16T07:33:41;3.30;;;1.75;;
22191;SDS011;11261;52.456;10.850;2023-07-16T07:36:09;2.55;;;1.20;;
22191;SDS011;11261;52.456;10.850;2023-07-16T07:38:37;1.85;;;1.33;;
22191;SDS011;11261;52.456;10.850;2023-07-16T07:41:05;3.05;;;1.75;;
22191;SDS011;11261;52.456;10.850;2023-07-16T07:43:34;2.78;;;1.40;;
22191;SDS011;11261;52.456;10.850;2023-07-16T07:46:02;2.38;;;1.20;;
22191;SDS011;11261;52.456;10.850;2023-07-16T07:48:30;2.38;;;1.33;;
22191;SDS011;11261;52.456;10.850;2023-07-16T07:51:00;3.10;;;1.40;;
22191;SDS011;11261;52.456;10.850;2023-07-16T07:53:28;4.00;;;1.38;;
22191;SDS011;11261;52.456;10.850;2023-07-16T07:55:56;5.68;;;1.40;;
22191;SDS011;11261;52.456;10.850;2023-07-16T07:58:24;1.83;;;1.17;;
22191;SDS011;11261;52.456;10.850;2023-07-16T08:00:53;3.70;;;1.40;;
22191;SDS011;11261;52.456;10.850;2023-07-16T08:03:21;3.80;;;1.50;;
22191;SDS011;11261;52.456;10.850;2023-07-16T08:05:49;3.35;;;1.60;;
22191;SDS011;11261;52.456;10.850;2023-07-16T08:08:19;2.85;;;1.27;;
22191;SDS011;11261;52.456;10.850;2023-07-16T08:10:48;3.72;;;1.30;;
22191;SDS011;11261;52.456;10.850;2023-07-16T08:13:16;2.65;;;1.50;;
22191;SDS011;11261;52.456;10.850;2023-07-16T08:15:44;2.63;;;1.15;;
22191;SDS011;11261;52.456;10.850;2023-07-16T08:18:14;2.38;;;1.25;;
22191;SDS011;11261;52.456;10.850;2023-07-16T08:20:43;4.57;;;1.63;;
22191;SDS011;11261;52.456;10.850;2023-07-16T08:23:11;1.80;;;1.10;;
22191;SDS011;11261;52.456;10.850;2023-07-16T08:25:42;3.55;;;1.20;;
22191;SDS011;11261;52.456;10.850;2023-07-16T08:28:10;1.60;;;1.00;;
22191;SDS011;11261;52.456;10.850;2023-07-16T08:30:39;1.77;;;1.20;;
22191;SDS011;11261;52.456;10.850;2023-07-16T08:33:07;4.13;;;1.17;;
22191;SDS011;11261;52.456;10.850;2023-07-16T08:35:36;3.53;;;1.48;;
22191;SDS011;11261;52.456;10.850;2023-07-16T08:38:04;4.20;;;1.30;;
22191;SDS011;11261;52.456;10.850;2023-07-16T08:40:36;3.38;;;1.10;;
22191;SDS011;11261;52.456;10.850;2023-07-16T08:43:07;4.47;;;1.20;;
22191;SDS011;11261;52.456;10.850;2023-07-16T08:45:38;2.97;;;1.10;;
22191;SDS011;11261;52.456;10.850;2023-07-16T08:48:09;2.40;;;1.00;;
22191;SDS011;11261;52.456;10.850;2023-07-16T08:50:37;2.63;;;1.10;;
22191;SDS011;11261;52.456;10.850;2023-07-16T08:53:07;4.57;;;1.13;;
22191;SDS011;11261;52.456;10.850;2023-07-16T08:55:35;5.30;;;1.20;;
22191;SDS011;11261;52.456;10.850;2023-07-16T08:58:04;2.20;;;1.10;;
22191;SDS011;11261;52.456;10.850;2023-07-16T09:00:34;2.83;;;1.17;;
22191;SDS011;11261;52.456;10.850;2023-07-16T09:03:03;4.28;;;1.23;;
22191;SDS011;11261;52.456;10.850;2023-07-16T09:05:31;2.78;;;1.33;;
22191;SDS011;11261;52.456;10.850;2023-07-16T09:08:06;1.98;;;1.27;;
22191;SDS011;11261;52.456;10.850;2023-07-16T09:10:34;2.60;;;1.00;;
22191;SDS011;11261;52.456;10.850;2023-07-16T09:13:03;2.83;;;1.10;;
22191;SDS011;11261;52.456;10.850;2023-07-16T09:15:32;4.60;;;1.23;;
22191;SDS011;11261;52.456;10.850;2023-07-16T09:18:01;2.58;;;1.23;;
22191;SDS011;11261;52.456;10.850;2023-07-16T09:20:29;3.85;;;1.10;;
22191;SDS011;11261;52.456;10.850;2023-07-16T09:22:58;2.08;;;1.20;;
22191;SDS011;11261;52.456;10.850;2023-07-16T09:25:26;3.70;;;1.30;;
22191;SDS011;11261;52.456;10.850;2023-07-16T09:27:58;2.78;;;1.20;;
22191;SDS011;11261;52.456;10.850;2023-07-16T09:30:30;3.30;;;1.20;;
22191;SDS011;11261;52.456;10.850;2023-07-16T09:33:09;2.50;;;1.10;;
22191;SDS011;11261;52.456;10.850;2023-07-16T09:35:39;2.42;;;1.05;;
22191;SDS011;11261;52.456;10.850;2023-07-16T09:38:07;2.30;;;1.20;;
22191;SDS011;11261;52.456;10.850;2023-07-16T09:40:37;2.08;;;1.10;;
22191;SDS011;11261;52.456;10.850;2023-07-16T09:43:05;2.97;;;1.23;;
22191;SDS011;11261;52.456;10.850;2023-07-16T09:45:35;3.58;;;1.13;;
22191;SDS011;11261;52.456;10.850;2023-07-16T09:48:04;1.98;;;1.33;;
22191;SDS011;11261;52.456;10.850;2023-07-16T09:50:33;3.85;;;1.42;;
22191;SDS011;11261;52.456;10.850;2023-07-16T09:53:03;4.90;;;1.35;;
22191;SDS011;11261;52.456;10.850;2023-07-16T09:55:35;2.55;;;1.05;;
22191;SDS011;11261;52.456;10.850;2023-07-16T09:58:05;3.85;;;1.20;;
22191;SDS011;11261;52.456;10.850;2023-07-16T10:00:38;3.17;;;1.00;;
22191;SDS011;11261;52.456;10.850;2023-07-16T10:03:08;3.45;;;1.25;;
22191;SDS011;11261;52.456;10.850;2023-07-16T10:05:36;2.67;;;1.15;;
22191;SDS011;11261;52.456;10.850;2023-07-16T10:08:14;5.10;;;1.23;;
22191;SDS011;11261;52.456;10.850;2023-07-16T10:10:44;5.07;;;1.20;;
22191;SDS011;11261;52.456;10.850;2023-07-16T10:13:15;3.25;;;1.38;;
22191;SDS011;11261;52.456;10.850;2023-07-16T10:15:52;3.70;;;1.40;;
22191;SDS011;11261;52.456;10.850;2023-07-16T10:18:25;3.42;;;1.42;;
22191;SDS011;11261;52.456;10.850;2023-07-16T10:21:02;3.30;;;1.05;;
22191;SDS011;11261;52.456;10.850;2023-07-16T10:23:38;2.08;;;1.30;;
22191;SDS011;11261;52.456;10.850;2023-07-16T10:26:09;9.52;;;1.52;;
22191;SDS011;11261;52.456;10.850;2023-07-16T10:28:44;2.35;;;1.30;;
22191;SDS011;11261;52.456;10.850;2023-07-16T10:31:20;3.97;;;1.13;;
22191;SDS011;11261;52.456;10.850;2023-07-16T10:33:56;2.78;;;1.08;;
22191;SDS011;11261;52.456;10.850;2023-07-16T10:36:27;2.55;;;1.23;;
22191;SDS011;11261;52.456;10.850;2023-07-16T10:39:01;3.70;;;1.55;;
22191;SDS011;11261;52.456;10.850;2023-07-16T10:41:30;2.13;;;1.17;;
22191;SDS011;11261;52.456;10.850;2023-07-16T10:44:00;3.67;;;1.30;;
22191;SDS011;11261;52.456;10.850;2023-07-16T10:46:30;8.48;;;1.67;;
22191;SDS011;11261;52.456;10.850;2023-07-16T10:48:58;3.20;;;1.30;;
22191;SDS011;11261;52.456;10.850;2023-07-16T10:51:27;2.05;;;1.42;;
22191;SDS011;11261;52.456;10.850;2023-07-16T10:53:55;1.73;;;1.00;;
22191;SDS011;11261;52.456;10.850;2023-07-16T10:56:24;2.05;;;1.00;;
22191;SDS011;11261;52.456;10.850;2023-07-16T10:58:52;2.00;;;1.20;;
22191;SDS011;11261;52.456;10.850;2023-07-16T11:01:21;1.73;;;1.20;;
22191;SDS011;11261;52.456;10.850;2023-07-16T11:03:51;2.17;;;1.23;;
22191;SDS011;11261;52.456;10.850;2023-07-16T11:06:19;2.78;;;1.10;;
22191;SDS011;11261;52.456;10.850;2023-07-16T11:08:48;2.90;;;1.60;;
22191;SDS011;11261;52.456;10.850;2023-07-16T11:11:26;1.65;;;1.08;;
22191;SDS011;11261;52.456;10.850;2023-07-16T11:13:56;3.40;;;1.15;;
22191;SDS011;11261;52.456;10.850;2023-07-16T11:16:25;3.15;;;1.27;;
22191;SDS011;11261;52.456;10.850;2023-07-16T11:18:54;2.67;;;1.20;;
22191;SDS011;11261;52.456;10.850;2023-07-16T11:21:23;2.88;;;1.30;;
22191;SDS011;11261;52.456;10.850;2023-07-16T11:23:51;2.47;;;1.52;;
22191;SDS011;11261;52.456;10.850;2023-07-16T11:26:19;5.68;;;1.30;;
22191;SDS011;11261;52.456;10.850;2023-07-16T11:28:49;1.63;;;0.85;;
22191;SDS011;11261;52.456;10.850;2023-07-16T11:31:18;2.83;;;1.30;;
22191;SDS011;11261;52.456;10.850;2023-07-16T11:33:50;2.72;;;1.20;;
22191;SDS011;11261;52.456;10.850;2023-07-16T11:36:20;3.30;;;1.13;;
22191;SDS011;11261;52.456;10.850;2023-07-16T11:38:48;3.72;;;1.45;;
22191;SDS011;11261;52.456;10.850;2023-07-16T11:41:19;3.90;;;1.42;;
22191;SDS011;11261;52.456;10.850;2023-07-16T11:43:48;1.92;;;1.30;;
22191;SDS011;11261;52.456;10.850;2023-07-16T11:46:17;5.15;;;1.38;;
22191;SDS011;11261;52.456;10.850;2023-07-16T11:48:46;2.00;;;1.20;;
22191;SDS011;11261;52.456;10.850;2023-07-16T11:51:14;4.40;;;1.52;;
22191;SDS011;11261;52.456;10.850;2023-07-16T11:53:44;1.65;;;1.02;;
22191;SDS011;11261;52.456;10.850;2023-07-16T11:56:12;1.85;;;1.30;;
22191;SDS011;11261;52.456;10.850;2023-07-16T11:58:41;3.33;;;1.45;;
22191;SDS011;11261;52.456;10.850;2023-07-16T12:01:09;3.20;;;1.33;;
22191;SDS011;11261;52.456;10.850;2023-07-16T12:03:38;1.92;;;1.08;;
22191;SDS011;11261;52.456;10.850;2023-07-16T12:06:07;4.22;;;1.65;;
22191;SDS011;11261;52.456;10.850;2023-07-16T12:08:37;3.53;;;1.30;;
22191;SDS011;11261;52.456;10.850;2023-07-16T12:11:06;2.08;;;1.17;;
22191;SDS011;11261;52.456;10.850;2023-07-16T12:13:34;4.93;;;1.55;;
22191;SDS011;11261;52.456;10.850;2023-07-16T12:16:03;3.13;;;1.33;;
22191;SDS011;11261;52.456;10.850;2023-07-16T12:18:31;1.45;;;1.10;;
22191;SDS011;11261;52.456;10.850;2023-07-16T12:21:00;3.95;;;1.58;;
22191;SDS011;11261;52.456;10.850;2023-07-16T12:23:29;4.57;;;1.30;;
22191;SDS011;11261;52.456;10.850;2023-07-16T12:25:57;3.58;;;1.40;;
22191;SDS011;11261;52.456;10.850;2023-07-16T12:28:27;2.97;;;1.42;;
22191;SDS011;11261;52.456;10.850;2023-07-16T12:30:55;3.08;;;1.25;;
22191;SDS011;11261;52.456;10.850;2023-07-16T12:33:23;3.47;;;1.30;;
22191;SDS011;11261;52.456;10.850;2023-07-16T12:35:52;5.72;;;1.40;;
22191;SDS011;11261;52.456;10.850;2023-07-16T12:38:21;5.22;;;1.45;;
22191;SDS011;11261;52.456;10.850;2023-07-16T12:40:50;2.65;;;1.20;;
22191;SDS011;11261;52.456;10.850;2023-07-16T12:43:18;4.70;;;1.17;;
22191;SDS011;11261;52.456;10.850;2023-07-16T12:45:47;1.58;;;1.13;;
22191;SDS011;11261;52.456;10.850;2023-07-16T12:48:16;3.05;;;1.50;;
22191;SDS011;11261;52.456;10.850;2023-07-16T12:50:44;2.10;;;1.17;;
22191;SDS011;11261;52.456;10.850;2023-07-16T12:53:12;3.38;;;1.70;;
22191;SDS011;11261;52.456;10.850;2023-07-16T12:55:40;2.75;;;1.60;;
22191;SDS011;11261;52.456;10.850;2023-07-16T12:58:09;4.07;;;1.50;;
22191;SDS011;11261;52.456;10.850;2023-07-16T13:00:37;4.10;;;1.30;;
22191;SDS011;11261;52.456;10.850;2023-07-16T13:03:06;3.38;;;1.50;;
22191;SDS011;11261;52.456;10.850;2023-07-16T13:05:38;3.47;;;1.50;;
22191;SDS011;11261;52.456;10.850;2023-07-16T13:08:06;1.80;;;1.10;;
22191;SDS011;11261;52.456;10.850;2023-07-16T13:10:35;2.35;;;1.50;;
22191;SDS011;11261;52.456;10.850;2023-07-16T13:13:03;2.45;;;1.15;;
22191;SDS011;11261;52.456;10.850;2023-07-16T13:15:32;2.38;;;1.30;;
22191;SDS011;11261;52.456;10.850;2023-07-16T13:18:00;4.18;;;2.17;;
22191;SDS011;11261;52.456;10.850;2023-07-16T13:20:30;2.70;;;1.40;;
22191;SDS011;11261;52.456;10.850;2023-07-16T13:22:58;2.28;;;1.17;;
22191;SDS011;11261;52.456;10.850;2023-07-16T13:25:27;1.30;;;1.20;;
22191;SDS011;11261;52.456;10.850;2023-07-16T13:27:56;2.53;;;1.40;;
22191;SDS011;11261;52.456;10.850;2023-07-16T13:30:24;2.22;;;1.33;;
22191;SDS011;11261;52.456;10.850;2023-07-16T13:32:53;1.85;;;1.13;;
22191;SDS011;11261;52.456;10.850;2023-07-16T13:35:22;3.72;;;1.55;;
22191;SDS011;11261;52.456;10.850;2023-07-16T13:37:52;2.58;;;1.40;;
22191;SDS011;11261;52.456;10.850;2023-07-16T13:40:21;2.25;;;1.15;;
22191;SDS011;11261;52.456;10.850;2023-07-16T13:42:49;1.95;;;1.38;;
22191;SDS011;11261;52.456;10.850;2023-07-16T13:45:19;3.63;;;1.60;;
22191;SDS011;11261;52.456;10.850;2023-07-16T13:47:47;4.25;;;1.70;;
22191;SDS011;11261;52.456;10.850;2023-07-16T13:50:18;2.60;;;1.60;;
22191;SDS011;11261;52.456;10.850;2023-07-16T13:52:46;1.88;;;1.70;;
22191;SDS011;11261;52.456;10.850;2023-07-16T13:55:15;2.58;;;1.70;;
22191;SDS011;11261;52.456;10.850;2023-07-16T13:57:44;2.72;;;1.50;;
22191;SDS011;11261;52.456;10.850;2023-07-16T14:00:12;2.05;;;1.60;;
22191;SDS011;11261;52.456;10.850;2023-07-16T14:02:42;3.13;;;1.70;;
22191;SDS011;11261;52.456;10.850;2023-07-16T14:05:11;2.03;;;1.50;;
22191;SDS011;11261;52.456;10.850;2023-07-16T14:07:40;1.85;;;1.10;;
22191;SDS011;11261;52.456;10.850;2023-07-16T14:10:08;2.72;;;1.88;;
22191;SDS011;11261;52.456;10.850;2023-07-16T14:12:38;3.22;;;1.55;;
22191;SDS011;11261;52.456;10.850;2023-07-16T14:15:07;3.38;;;1.70;;
22191;SDS011;11261;52.456;10.850;2023-07-16T14:17:35;2.15;;;1.50;;
22191;SDS011;11261;52.456;10.850;2023-07-16T14:20:04;2.55;;;1.85;;
22191;SDS011;11261;52.456;10.850;2023-07-16T14:22:34;3.15;;;1.70;;
22191;SDS011;11261;52.456;10.850;2023-07-16T14:25:02;3.92;;;1.85;;
22191;SDS011;11261;52.456;10.850;2023-07-16T14:27:31;2.25;;;1.60;;
22191;SDS011;11261;52.456;10.850;2023-07-16T14:30:01;3.35;;;1.70;;
22191;SDS011;11261;52.456;10.850;2023-07-16T14:32:33;5.00;;;1.88;;
22191;SDS011;11261;52.456;10.850;2023-07-16T14:35:01;4.45;;;1.50;;
22191;SDS011;11261;52.456;10.850;2023-07-16T14:37:30;7.00;;;1.65;;
22191;SDS011;11261;52.456;10.850;2023-07-16T14:39:58;2.40;;;1.77;;
22191;SDS011;11261;52.456;10.850;2023-07-16T14:42:26;3.92;;;1.50;;
22191;SDS011;11261;52.456;10.850;2023-07-16T14:44:54;3.63;;;1.92;;